sensor_id;sensor_type;location;lat;lon;timestamp;temperature;humidity
41256;DHT22;26989;45.524;10.938;2022-07-22T00:01:52;26.60;77.70
41256;DHT22;26989;45.524;10.938;2022-07-22T00:04:19;26.60;77.50
41256;DHT22;26989;45.524;10.938;2022-07-22T00:06:46;26.70;77.10
41256;DHT22;26989;45.524;10.938;2022-07-22T00:09:13;26.70;77.30
41256;DHT22;26989;45.524;10.938;2022-07-22T00:11:40;26.70;76.80
41256;DHT22;26989;45.524;10.938;2022-07-22T00:14:06;26.90;76.10
41256;DHT22;26989;45.524;10.938;2022-07-22T00:16:33;26.70;76.20
41256;DHT22;26989;45.524;10.938;2022-07-22T00:19:00;26.90;75.30
41256;DHT22;26989;45.524;10.938;2022-07-22T00:21:27;26.90;74.80
41256;DHT22;26989;45.524;10.938;2022-07-22T00:23:54;26.90;74.80
41256;DHT22;26989;45.524;10.938;2022-07-22T00:26:21;26.90;74.00
41256;DHT22;26989;45.524;10.938;2022-07-22T00:28:48;27.10;73.40
41256;DHT22;26989;45.524;10.938;2022-07-22T00:31:15;27.00;73.60
41256;DHT22;26989;45.524;10.938;2022-07-22T00:33:43;26.90;73.40
41256;DHT22;26989;45.524;10.938;2022-07-22T00:36:10;27.10;72.50
41256;DHT22;26989;45.524;10.938;2022-07-22T00:38:38;27.20;72.20
41256;DHT22;26989;45.524;10.938;2022-07-22T00:41:05;27.20;71.80
41256;DHT22;26989;45.524;10.938;2022-07-22T00:44:00;27.10;72.10
41256;DHT22;26989;45.524;10.938;2022-07-22T00:46:29;27.10;71.70
41256;DHT22;26989;45.524;10.938;2022-07-22T00:48:58;27.00;71.70
41256;DHT22;26989;45.524;10.938;2022-07-22T00:51:27;27.10;71.20
41256;DHT22;26989;45.524;10.938;2022-07-22T00:53:58;27.10;71.00
41256;DHT22;26989;45.524;10.938;2022-07-22T00:56:26;27.10;70.60
41256;DHT22;26989;45.524;10.938;2022-07-22T00:58:55;27.20;70.20
41256;DHT22;26989;45.524;10.938;2022-07-22T01:01:23;26.70;71.80
41256;DHT22;26989;45.524;10.938;2022-07-22T01:03:51;26.60;71.20
41256;DHT22;26989;45.524;10.938;2022-07-22T01:06:26;26.60;71.10
41256;DHT22;26989;45.524;10.938;2022-07-22T01:08:54;26.70;70.80
41256;DHT22;26989;45.524;10.938;2022-07-22T01:11:23;26.50;71.00
41256;DHT22;26989;45.524;10.938;2022-07-22T01:13:51;26.50;71.00
41256;DHT22;26989;45.524;10.938;2022-07-22T01:16:19;26.60;70.70
41256;DHT22;26989;45.524;10.938;2022-07-22T01:18:46;26.50;70.60
41256;DHT22;26989;45.524;10.938;2022-07-22T01:21:14;26.50;70.60
41256;DHT22;26989;45.524;10.938;2022-07-22T01:23:42;26.50;70.30
41256;DHT22;26989;45.524;10.938;2022-07-22T01:26:09;26.40;70.30
41256;DHT22;26989;45.524;10.938;2022-07-22T01:28:36;26.40;70.40
41256;DHT22;26989;45.524;10.938;2022-07-22T01:31:03;26.40;70.30
41256;DHT22;26989;45.524;10.938;2022-07-22T01:33:30;26.40;70.40
41256;DHT22;26989;45.524;10.938;2022-07-22T01:35:57;26.40;70.40
41256;DHT22;26989;45.524;10.938;2022-07-22T01:38:24;26.40;70.30
41256;DHT22;26989;45.524;10.938;2022-07-22T01:40:51;26.30;70.50
41256;DHT22;26989;45.524;10.938;2022-07-22T01:43:18;26.20;70.50
41256;DHT22;26989;45.524;10.938;2022-07-22T01:45:50;26.20;70.50
41256;DHT22;26989;45.524;10.938;2022-07-22T01:48:18;26.20;70.50
41256;DHT22;26989;45.524;10.938;2022-07-22T01:50:45;26.20;70.40
41256;DHT22;26989;45.524;10.938;2022-07-22T01:53:12;26.20;70.30
41256;DHT22;26989;45.524;10.938;2022-07-22T01:55:41;26.10;70.30
41256;DHT22;26989;45.524;10.938;2022-07-22T01:58:08;26.10;70.40
41256;DHT22;26989;45.524;10.938;2022-07-22T02:00:36;26.20;70.40
41256;DHT22;26989;45.524;10.938;2022-07-22T02:03:04;26.10;70.40
41256;DHT22;26989;45.524;10.938;2022-07-22T02:05:31;26.10;70.60
41256;DHT22;26989;45.524;10.938;2022-07-22T02:08:03;26.10;70.70
41256;DHT22;26989;45.524;10.938;2022-07-22T02:10:31;26.00;71.00
41256;DHT22;26989;45.524;10.938;2022-07-22T02:12:58;26.00;71.40
41256;DHT22;26989;45.524;10.938;2022-07-22T02:15:36;26.00;71.50
41256;DHT22;26989;45.524;10.938;2022-07-22T02:18:19;25.90;71.90
41256;DHT22;26989;45.524;10.938;2022-07-22T02:20:46;25.90;72.20
41256;DHT22;26989;45.524;10.938;2022-07-22T02:23:13;25.90;72.50
41256;DHT22;26989;45.524;10.938;2022-07-22T02:25:40;25.90;72.90
41256;DHT22;26989;45.524;10.938;2022-07-22T02:28:08;25.90;73.20
41256;DHT22;26989;45.524;10.938;2022-07-22T02:30:35;25.80;73.60
41256;DHT22;26989;45.524;10.938;2022-07-22T02:33:02;25.80;73.90
41256;DHT22;26989;45.524;10.938;2022-07-22T02:35:29;25.90;74.20
41256;DHT22;26989;45.524;10.938;2022-07-22T02:37:56;25.90;74.40
41256;DHT22;26989;45.524;10.938;2022-07-22T02:40:23;25.90;74.60
41256;DHT22;26989;45.524;10.938;2022-07-22T02:42:50;25.70;74.90
41256;DHT22;26989;45.524;10.938;2022-07-22T02:45:17;25.70;75.30
41256;DHT22;26989;45.524;10.938;2022-07-22T02:47:55;25.70;75.50
41256;DHT22;26989;45.524;10.938;2022-07-22T02:50:23;25.70;75.70
41256;DHT22;26989;45.524;10.938;2022-07-22T02:52:50;25.60;76.20
41256;DHT22;26989;45.524;10.938;2022-07-22T02:55:17;25.60;76.60
41256;DHT22;26989;45.524;10.938;2022-07-22T02:57:45;25.80;76.40
41256;DHT22;26989;45.524;10.938;2022-07-22T03:00:13;25.80;76.40
41256;DHT22;26989;45.524;10.938;2022-07-22T03:02:40;25.80;76.70
41256;DHT22;26989;45.524;10.938;2022-07-22T03:05:07;25.70;77.60
41256;DHT22;26989;45.524;10.938;2022-07-22T03:07:34;25.70;77.90
41256;DHT22;26989;45.524;10.938;2022-07-22T03:10:02;25.70;78.40
41256;DHT22;26989;45.524;10.938;2022-07-22T03:12:30;25.70;78.30
41256;DHT22;26989;45.524;10.938;2022-07-22T03:14:56;25.70;78.40
41256;DHT22;26989;45.524;10.938;2022-07-22T03:17:23;25.70;78.40
41256;DHT22;26989;45.524;10.938;2022-07-22T03:19:50;25.80;78.40
41256;DHT22;26989;45.524;10.938;2022-07-22T03:22:17;25.70;78.50
41256;DHT22;26989;45.524;10.938;2022-07-22T03:24:44;25.70;78.80
41256;DHT22;26989;45.524;10.938;2022-07-22T03:27:11;25.60;79.00
41256;DHT22;26989;45.524;10.938;2022-07-22T03:29:38;25.50;79.20
41256;DHT22;26989;45.524;10.938;2022-07-22T03:32:05;25.50;79.30
41256;DHT22;26989;45.524;10.938;2022-07-22T03:34:32;25.60;79.50
41256;DHT22;26989;45.524;10.938;2022-07-22T03:36:59;25.60;79.50
41256;DHT22;26989;45.524;10.938;2022-07-22T03:39:25;25.50;79.60
41256;DHT22;26989;45.524;10.938;2022-07-22T03:41:52;25.50;79.70
41256;DHT22;26989;45.524;10.938;2022-07-22T03:44:19;25.40;80.00
41256;DHT22;26989;45.524;10.938;2022-07-22T03:46:46;25.20;80.30
41256;DHT22;26989;45.524;10.938;2022-07-22T03:49:13;25.00;80.90
41256;DHT22;26989;45.524;10.938;2022-07-22T03:51:40;25.00;81.50
41256;DHT22;26989;45.524;10.938;2022-07-22T03:54:07;25.00;81.80
41256;DHT22;26989;45.524;10.938;2022-07-22T03:56:34;25.00;82.00
41256;DHT22;26989;45.524;10.938;2022-07-22T03:59:01;25.00;82.20
41256;DHT22;26989;45.524;10.938;2022-07-22T04:01:28;24.80;82.60
41256;DHT22;26989;45.524;10.938;2022-07-22T04:03:55;24.90;82.60
41256;DHT22;26989;45.524;10.938;2022-07-22T04:06:29;24.70;83.00
41256;DHT22;26989;45.524;10.938;2022-07-22T04:08:56;24.70;83.30
41256;DHT22;26989;45.524;10.938;2022-07-22T04:11:25;24.70;83.20
41256;DHT22;26989;45.524;10.938;2022-07-22T04:13:52;24.70;83.50
41256;DHT22;26989;45.524;10.938;2022-07-22T04:16:19;24.80;83.30
41256;DHT22;26989;45.524;10.938;2022-07-22T04:18:46;24.70;83.40
41256;DHT22;26989;45.524;10.938;2022-07-22T04:21:13;24.80;83.30
41256;DHT22;26989;45.524;10.938;2022-07-22T04:23:40;24.70;83.50
41256;DHT22;26989;45.524;10.938;2022-07-22T04:26:07;24.90;83.20
41256;DHT22;26989;45.524;10.938;2022-07-22T04:28:35;25.00;82.90
41256;DHT22;26989;45.524;10.938;2022-07-22T04:31:03;25.10;82.50
41256;DHT22;26989;45.524;10.938;2022-07-22T04:33:30;25.20;82.00
41256;DHT22;26989;45.524;10.938;2022-07-22T04:35:57;25.10;82.30
41256;DHT22;26989;45.524;10.938;2022-07-22T04:38:24;25.00;82.90
41256;DHT22;26989;45.524;10.938;2022-07-22T04:40:51;25.00;83.20
41256;DHT22;26989;45.524;10.938;2022-07-22T04:43:21;24.80;83.60
41256;DHT22;26989;45.524;10.938;2022-07-22T04:45:48;24.90;83.60
41256;DHT22;26989;45.524;10.938;2022-07-22T04:48:15;25.00;83.40
41256;DHT22;26989;45.524;10.938;2022-07-22T04:50:42;25.00;83.40
41256;DHT22;26989;45.524;10.938;2022-07-22T04:53:09;25.90;82.00
41256;DHT22;26989;45.524;10.938;2022-07-22T04:55:37;27.60;77.50
41256;DHT22;26989;45.524;10.938;2022-07-22T04:58:04;28.50;75.50
41256;DHT22;26989;45.524;10.938;2022-07-22T05:00:31;30.10;73.40
41256;DHT22;26989;45.524;10.938;2022-07-22T05:02:58;30.40;71.80
41256;DHT22;26989;45.524;10.938;2022-07-22T05:05:25;31.10;70.40
41256;DHT22;26989;45.524;10.938;2022-07-22T05:07:52;31.90;69.50
41256;DHT22;26989;45.524;10.938;2022-07-22T05:10:18;31.10;70.40
41256;DHT22;26989;45.524;10.938;2022-07-22T05:12:47;31.10;70.40
41256;DHT22;26989;45.524;10.938;2022-07-22T05:15:14;31.60;69.40
41256;DHT22;26989;45.524;10.938;2022-07-22T05:17:41;31.70;69.30
41256;DHT22;26989;45.524;10.938;2022-07-22T05:20:08;32.00;68.90
41256;DHT22;26989;45.524;10.938;2022-07-22T05:22:35;32.80;68.60
41256;DHT22;26989;45.524;10.938;2022-07-22T05:25:04;32.70;68.70
41256;DHT22;26989;45.524;10.938;2022-07-22T05:27:31;32.90;69.30
41256;DHT22;26989;45.524;10.938;2022-07-22T05:29:58;32.70;68.90
41256;DHT22;26989;45.524;10.938;2022-07-22T05:32:25;32.70;69.20
41256;DHT22;26989;45.524;10.938;2022-07-22T05:34:52;32.50;68.00
41256;DHT22;26989;45.524;10.938;2022-07-22T05:37:20;33.90;67.90
41256;DHT22;26989;45.524;10.938;2022-07-22T05:39:46;35.90;65.70
41256;DHT22;26989;45.524;10.938;2022-07-22T05:42:13;35.00;64.60
41256;DHT22;26989;45.524;10.938;2022-07-22T05:44:40;36.20;64.40
41256;DHT22;26989;45.524;10.938;2022-07-22T05:47:07;37.30;63.50
41256;DHT22;26989;45.524;10.938;2022-07-22T05:49:34;36.70;64.30
41256;DHT22;26989;45.524;10.938;2022-07-22T05:52:06;36.50;63.90
41256;DHT22;26989;45.524;10.938;2022-07-22T05:54:33;34.80;65.40
41256;DHT22;26989;45.524;10.938;2022-07-22T05:57:00;35.30;65.30
41256;DHT22;26989;45.524;10.938;2022-07-22T05:59:27;34.70;65.10
41256;DHT22;26989;45.524;10.938;2022-07-22T06:01:53;35.10;65.00
41256;DHT22;26989;45.524;10.938;2022-07-22T06:04:20;36.50;63.80
41256;DHT22;26989;45.524;10.938;2022-07-22T06:06:48;37.20;62.50
41256;DHT22;26989;45.524;10.938;2022-07-22T06:09:15;37.50;62.60
41256;DHT22;26989;45.524;10.938;2022-07-22T06:11:41;36.70;62.20
41256;DHT22;26989;45.524;10.938;2022-07-22T06:14:08;37.70;61.90
41256;DHT22;26989;45.524;10.938;2022-07-22T06:16:35;37.90;62.30
41256;DHT22;26989;45.524;10.938;2022-07-22T06:19:02;38.60;61.60
41256;DHT22;26989;45.524;10.938;2022-07-22T06:21:29;37.90;61.90
41256;DHT22;26989;45.524;10.938;2022-07-22T06:23:56;40.00;61.00
41256;DHT22;26989;45.524;10.938;2022-07-22T06:26:23;40.70;58.50
41256;DHT22;26989;45.524;10.938;2022-07-22T06:28:50;41.50;57.70
41256;DHT22;26989;45.524;10.938;2022-07-22T06:31:17;42.00;56.50
41256;DHT22;26989;45.524;10.938;2022-07-22T06:33:44;41.70;55.30
41256;DHT22;26989;45.524;10.938;2022-07-22T06:36:11;41.90;56.50
41256;DHT22;26989;45.524;10.938;2022-07-22T06:38:38;42.80;57.20
41256;DHT22;26989;45.524;10.938;2022-07-22T06:41:07;43.00;57.30
41256;DHT22;26989;45.524;10.938;2022-07-22T06:43:34;43.70;57.40
41256;DHT22;26989;45.524;10.938;2022-07-22T06:46:01;43.70;57.10
41256;DHT22;26989;45.524;10.938;2022-07-22T06:48:28;43.80;56.80
41256;DHT22;26989;45.524;10.938;2022-07-22T06:50:55;43.40;56.90
41256;DHT22;26989;45.524;10.938;2022-07-22T06:53:22;43.20;57.00
41256;DHT22;26989;45.524;10.938;2022-07-22T06:55:49;43.50;57.40
41256;DHT22;26989;45.524;10.938;2022-07-22T06:58:16;43.30;56.80
41256;DHT22;26989;45.524;10.938;2022-07-22T07:00:43;42.70;56.80
41256;DHT22;26989;45.524;10.938;2022-07-22T07:03:10;42.60;57.20
41256;DHT22;26989;45.524;10.938;2022-07-22T07:05:57;42.50;56.60
41256;DHT22;26989;45.524;10.938;2022-07-22T07:08:24;41.90;56.10
41256;DHT22;26989;45.524;10.938;2022-07-22T07:10:51;38.80;57.00
41256;DHT22;26989;45.524;10.938;2022-07-22T07:13:18;37.30;58.60
41256;DHT22;26989;45.524;10.938;2022-07-22T07:15:45;35.90;59.50
41256;DHT22;26989;45.524;10.938;2022-07-22T07:18:12;35.00;60.70
41256;DHT22;26989;45.524;10.938;2022-07-22T07:20:39;34.60;61.60
41256;DHT22;26989;45.524;10.938;2022-07-22T07:23:06;34.30;62.50
41256;DHT22;26989;45.524;10.938;2022-07-22T07:25:33;34.10;63.20
41256;DHT22;26989;45.524;10.938;2022-07-22T07:28:00;34.00;63.80
41256;DHT22;26989;45.524;10.938;2022-07-22T07:30:27;33.80;63.40
41256;DHT22;26989;45.524;10.938;2022-07-22T07:32:54;33.80;63.10
41256;DHT22;26989;45.524;10.938;2022-07-22T07:35:21;33.90;64.20
41256;DHT22;26989;45.524;10.938;2022-07-22T07:37:54;33.80;63.20
41256;DHT22;26989;45.524;10.938;2022-07-22T07:40:21;33.90;63.40
41256;DHT22;26989;45.524;10.938;2022-07-22T07:42:48;33.60;63.30
41256;DHT22;26989;45.524;10.938;2022-07-22T07:45:28;33.80;64.00
41256;DHT22;26989;45.524;10.938;2022-07-22T07:47:54;33.90;63.60
41256;DHT22;26989;45.524;10.938;2022-07-22T07:50:21;33.70;63.70
41256;DHT22;26989;45.524;10.938;2022-07-22T07:52:48;33.70;62.60
41256;DHT22;26989;45.524;10.938;2022-07-22T07:55:19;33.80;63.10
41256;DHT22;26989;45.524;10.938;2022-07-22T07:57:47;33.70;62.70
41256;DHT22;26989;45.524;10.938;2022-07-22T08:00:19;33.80;62.80
41256;DHT22;26989;45.524;10.938;2022-07-22T08:02:47;33.90;63.00
41256;DHT22;26989;45.524;10.938;2022-07-22T08:05:14;34.00;63.00
41256;DHT22;26989;45.524;10.938;2022-07-22T08:07:42;33.60;63.30
41256;DHT22;26989;45.524;10.938;2022-07-22T08:10:09;33.60;63.40
41256;DHT22;26989;45.524;10.938;2022-07-22T08:12:56;33.80;63.10
41256;DHT22;26989;45.524;10.938;2022-07-22T08:15:28;34.00;62.40
41256;DHT22;26989;45.524;10.938;2022-07-22T08:17:55;34.10;62.20
41256;DHT22;26989;45.524;10.938;2022-07-22T08:20:24;34.10;61.90
41256;DHT22;26989;45.524;10.938;2022-07-22T08:22:51;34.00;62.20
41256;DHT22;26989;45.524;10.938;2022-07-22T08:25:19;34.00;61.80
41256;DHT22;26989;45.524;10.938;2022-07-22T08:27:47;33.90;61.70
41256;DHT22;26989;45.524;10.938;2022-07-22T08:30:15;34.00;62.20
41256;DHT22;26989;45.524;10.938;2022-07-22T08:32:42;34.10;62.10
41256;DHT22;26989;45.524;10.938;2022-07-22T08:35:10;33.90;61.90
41256;DHT22;26989;45.524;10.938;2022-07-22T08:37:37;34.20;62.60
41256;DHT22;26989;45.524;10.938;2022-07-22T08:40:05;34.10;61.70
41256;DHT22;26989;45.524;10.938;2022-07-22T08:42:38;34.20;62.40
41256;DHT22;26989;45.524;10.938;2022-07-22T08:45:06;34.20;62.20
41256;DHT22;26989;45.524;10.938;2022-07-22T08:47:47;34.30;61.80
41256;DHT22;26989;45.524;10.938;2022-07-22T08:50:15;34.40;61.40
41256;DHT22;26989;45.524;10.938;2022-07-22T08:52:42;34.50;60.70
41256;DHT22;26989;45.524;10.938;2022-07-22T08:55:09;34.60;60.10
41256;DHT22;26989;45.524;10.938;2022-07-22T08:57:36;34.70;60.10
41256;DHT22;26989;45.524;10.938;2022-07-22T09:00:13;34.70;59.50
41256;DHT22;26989;45.524;10.938;2022-07-22T09:02:41;34.80;59.30
41256;DHT22;26989;45.524;10.938;2022-07-22T09:05:11;34.70;59.10
41256;DHT22;26989;45.524;10.938;2022-07-22T09:08:00;34.90;59.60
41256;DHT22;26989;45.524;10.938;2022-07-22T09:10:33;34.90;59.10
41256;DHT22;26989;45.524;10.938;2022-07-22T09:13:02;35.00;59.60
41256;DHT22;26989;45.524;10.938;2022-07-22T09:15:32;35.00;59.20
41256;DHT22;26989;45.524;10.938;2022-07-22T09:18:00;35.10;59.60
41256;DHT22;26989;45.524;10.938;2022-07-22T09:20:33;35.20;59.30
41256;DHT22;26989;45.524;10.938;2022-07-22T09:23:00;35.20;59.10
41256;DHT22;26989;45.524;10.938;2022-07-22T09:25:31;35.20;59.30
41256;DHT22;26989;45.524;10.938;2022-07-22T09:30:49;35.40;58.90
41256;DHT22;26989;45.524;10.938;2022-07-22T09:33:19;35.40;58.70
41256;DHT22;26989;45.524;10.938;2022-07-22T09:35:47;35.30;58.90
41256;DHT22;26989;45.524;10.938;2022-07-22T09:38:18;35.50;59.00
41256;DHT22;26989;45.524;10.938;2022-07-22T09:40:47;35.40;58.50
41256;DHT22;26989;45.524;10.938;2022-07-22T09:43:17;35.40;58.30
41256;DHT22;26989;45.524;10.938;2022-07-22T09:45:46;35.40;57.90
41256;DHT22;26989;45.524;10.938;2022-07-22T09:48:16;35.40;57.90
41256;DHT22;26989;45.524;10.938;2022-07-22T09:50:45;35.40;57.10
41256;DHT22;26989;45.524;10.938;2022-07-22T09:53:12;35.40;57.80
41256;DHT22;26989;45.524;10.938;2022-07-22T09:55:39;35.10;57.40
41256;DHT22;26989;45.524;10.938;2022-07-22T09:58:07;35.10;57.70
41256;DHT22;26989;45.524;10.938;2022-07-22T10:00:35;35.20;57.70
41256;DHT22;26989;45.524;10.938;2022-07-22T10:03:05;35.40;57.90
41256;DHT22;26989;45.524;10.938;2022-07-22T10:05:37;35.40;57.70
41256;DHT22;26989;45.524;10.938;2022-07-22T10:08:06;35.40;57.10
41256;DHT22;26989;45.524;10.938;2022-07-22T10:10:35;35.50;57.20
41256;DHT22;26989;45.524;10.938;2022-07-22T10:13:04;35.40;57.00
41256;DHT22;26989;45.524;10.938;2022-07-22T10:15:32;35.40;57.10
41256;DHT22;26989;45.524;10.938;2022-07-22T10:18:04;35.50;56.80
41256;DHT22;26989;45.524;10.938;2022-07-22T10:20:34;35.40;56.90
41256;DHT22;26989;45.524;10.938;2022-07-22T10:23:03;35.50;57.00
41256;DHT22;26989;45.524;10.938;2022-07-22T10:25:55;35.60;56.10
41256;DHT22;26989;45.524;10.938;2022-07-22T10:33:41;35.80;55.40
41256;DHT22;26989;45.524;10.938;2022-07-22T10:36:08;35.60;55.70
41256;DHT22;26989;45.524;10.938;2022-07-22T10:38:36;35.70;55.40
41256;DHT22;26989;45.524;10.938;2022-07-22T10:41:05;35.80;55.70
41256;DHT22;26989;45.524;10.938;2022-07-22T10:46:06;35.70;55.60
41256;DHT22;26989;45.524;10.938;2022-07-22T10:51:08;35.50;55.40
41256;DHT22;26989;45.524;10.938;2022-07-22T10:56:22;35.70;56.20
41256;DHT22;26989;45.524;10.938;2022-07-22T10:59:12;35.70;56.10
41256;DHT22;26989;45.524;10.938;2022-07-22T11:01:44;35.70;55.00
41256;DHT22;26989;45.524;10.938;2022-07-22T11:04:18;35.80;55.70
41256;DHT22;26989;45.524;10.938;2022-07-22T11:06:47;35.90;55.70
41256;DHT22;26989;45.524;10.938;2022-07-22T11:09:16;35.90;56.20
41256;DHT22;26989;45.524;10.938;2022-07-22T11:11:47;35.90;56.20
41256;DHT22;26989;45.524;10.938;2022-07-22T11:14:17;35.90;55.60
41256;DHT22;26989;45.524;10.938;2022-07-22T11:16:46;35.90;55.50
41256;DHT22;26989;45.524;10.938;2022-07-22T11:19:13;35.90;55.70
41256;DHT22;26989;45.524;10.938;2022-07-22T11:21:40;36.00;56.10
41256;DHT22;26989;45.524;10.938;2022-07-22T11:24:10;36.00;56.10
41256;DHT22;26989;45.524;10.938;2022-07-22T11:26:44;36.00;56.40
41256;DHT22;26989;45.524;10.938;2022-07-22T11:29:29;36.00;55.30
41256;DHT22;26989;45.524;10.938;2022-07-22T11:31:59;36.10;56.30
41256;DHT22;26989;45.524;10.938;2022-07-22T11:34:26;36.10;56.20
41256;DHT22;26989;45.524;10.938;2022-07-22T11:36:55;36.00;56.10
41256;DHT22;26989;45.524;10.938;2022-07-22T11:39:24;36.00;56.00
41256;DHT22;26989;45.524;10.938;2022-07-22T11:41:53;35.90;56.30
41256;DHT22;26989;45.524;10.938;2022-07-22T11:44:21;36.10;56.60
41256;DHT22;26989;45.524;10.938;2022-07-22T11:46:49;36.30;56.10
41256;DHT22;26989;45.524;10.938;2022-07-22T11:49:18;36.20;55.60
41256;DHT22;26989;45.524;10.938;2022-07-22T11:51:46;36.10;56.10
41256;DHT22;26989;45.524;10.938;2022-07-22T11:54:13;36.20;56.20
41256;DHT22;26989;45.524;10.938;2022-07-22T11:56:40;36.10;55.60
41256;DHT22;26989;45.524;10.938;2022-07-22T11:59:12;36.20;55.30
41256;DHT22;26989;45.524;10.938;2022-07-22T12:01:39;36.30;55.80
41256;DHT22;26989;45.524;10.938;2022-07-22T12:04:09;36.30;55.00
41256;DHT22;26989;45.524;10.938;2022-07-22T12:06:38;36.30;55.20
41256;DHT22;26989;45.524;10.938;2022-07-22T12:11:52;36.40;55.60
41256;DHT22;26989;45.524;10.938;2022-07-22T12:14:21;36.50;55.70
41256;DHT22;26989;45.524;10.938;2022-07-22T12:17:06;36.50;55.30
41256;DHT22;26989;45.524;10.938;2022-07-22T12:19:35;36.50;55.50
41256;DHT22;26989;45.524;10.938;2022-07-22T12:22:05;36.60;56.00
41256;DHT22;26989;45.524;10.938;2022-07-22T12:24:33;36.60;56.00
41256;DHT22;26989;45.524;10.938;2022-07-22T12:27:05;36.30;54.80
41256;DHT22;26989;45.524;10.938;2022-07-22T12:32:08;36.40;55.80
41256;DHT22;26989;45.524;10.938;2022-07-22T12:34:44;36.60;55.70
41256;DHT22;26989;45.524;10.938;2022-07-22T12:39:40;36.70;56.40
41256;DHT22;26989;45.524;10.938;2022-07-22T12:42:18;36.80;56.40
41256;DHT22;26989;45.524;10.938;2022-07-22T12:45:01;36.80;56.20
41256;DHT22;26989;45.524;10.938;2022-07-22T12:47:50;36.80;56.10
41256;DHT22;26989;45.524;10.938;2022-07-22T12:53:12;36.70;56.20
41256;DHT22;26989;45.524;10.938;2022-07-22T12:55:56;36.80;56.40
41256;DHT22;26989;45.524;10.938;2022-07-22T12:58:28;36.80;56.20
41256;DHT22;26989;45.524;10.938;2022-07-22T13:00:58;36.90;56.00
41256;DHT22;26989;45.524;10.938;2022-07-22T13:03:26;36.90;56.30
41256;DHT22;26989;45.524;10.938;2022-07-22T13:05:55;37.00;56.10
41256;DHT22;26989;45.524;10.938;2022-07-22T13:08:23;37.10;56.50
41256;DHT22;26989;45.524;10.938;2022-07-22T13:10:51;37.20;56.30
41256;DHT22;26989;45.524;10.938;2022-07-22T13:13:20;37.20;55.80
41256;DHT22;26989;45.524;10.938;2022-07-22T13:15:48;37.20;56.50
41256;DHT22;26989;45.524;10.938;2022-07-22T13:18:16;37.40;56.30
41256;DHT22;26989;45.524;10.938;2022-07-22T13:20:43;37.40;56.40
41256;DHT22;26989;45.524;10.938;2022-07-22T13:23:10;37.50;56.30
41256;DHT22;26989;45.524;10.938;2022-07-22T13:25:37;37.50;56.30
41256;DHT22;26989;45.524;10.938;2022-07-22T13:28:04;37.60;56.00
41256;DHT22;26989;45.524;10.938;2022-07-22T13:30:31;37.50;56.20
41256;DHT22;26989;45.524;10.938;2022-07-22T13:32:58;37.50;56.30
41256;DHT22;26989;45.524;10.938;2022-07-22T13:35:25;37.30;56.20
41256;DHT22;26989;45.524;10.938;2022-07-22T13:37:52;37.50;56.60
41256;DHT22;26989;45.524;10.938;2022-07-22T13:40:19;37.70;56.10
41256;DHT22;26989;45.524;10.938;2022-07-22T13:42:46;37.80;56.40
41256;DHT22;26989;45.524;10.938;2022-07-22T13:45:13;37.60;56.40
41256;DHT22;26989;45.524;10.938;2022-07-22T13:47:41;37.80;56.70
41256;DHT22;26989;45.524;10.938;2022-07-22T13:50:09;37.90;56.30
41256;DHT22;26989;45.524;10.938;2022-07-22T13:52:36;38.00;56.80
41256;DHT22;26989;45.524;10.938;2022-07-22T13:55:04;37.80;56.40
41256;DHT22;26989;45.524;10.938;2022-07-22T13:57:32;37.90;56.40
41256;DHT22;26989;45.524;10.938;2022-07-22T13:59:59;38.00;56.60
41256;DHT22;26989;45.524;10.938;2022-07-22T14:02:26;38.00;56.70
41256;DHT22;26989;45.524;10.938;2022-07-22T14:04:53;38.00;56.50
41256;DHT22;26989;45.524;10.938;2022-07-22T14:07:20;38.10;56.30
41256;DHT22;26989;45.524;10.938;2022-07-22T14:09:49;38.10;56.80
41256;DHT22;26989;45.524;10.938;2022-07-22T14:12:16;38.10;57.00
41256;DHT22;26989;45.524;10.938;2022-07-22T14:14:43;37.90;56.80
41256;DHT22;26989;45.524;10.938;2022-07-22T14:17:10;37.90;56.70
41256;DHT22;26989;45.524;10.938;2022-07-22T14:19:38;38.00;56.90
41256;DHT22;26989;45.524;10.938;2022-07-22T14:22:05;38.10;57.10
41256;DHT22;26989;45.524;10.938;2022-07-22T14:24:32;38.20;57.00
41256;DHT22;26989;45.524;10.938;2022-07-22T14:26:59;38.20;56.90
41256;DHT22;26989;45.524;10.938;2022-07-22T14:29:26;38.20;57.30
41256;DHT22;26989;45.524;10.938;2022-07-22T14:31:53;38.30;57.30
41256;DHT22;26989;45.524;10.938;2022-07-22T14:34:20;38.50;57.40
41256;DHT22;26989;45.524;10.938;2022-07-22T14:36:47;38.50;57.30
41256;DHT22;26989;45.524;10.938;2022-07-22T14:39:14;38.60;56.80
41256;DHT22;26989;45.524;10.938;2022-07-22T14:41:41;38.50;56.90
41256;DHT22;26989;45.524;10.938;2022-07-22T14:44:08;38.40;57.10
41256;DHT22;26989;45.524;10.938;2022-07-22T14:46:35;38.50;57.20
41256;DHT22;26989;45.524;10.938;2022-07-22T14:49:02;38.50;57.30
41256;DHT22;26989;45.524;10.938;2022-07-22T14:51:30;38.60;57.20
41256;DHT22;26989;45.524;10.938;2022-07-22T14:53:56;38.20;57.20
41256;DHT22;26989;45.524;10.938;2022-07-22T14:56:24;38.50;57.20
41256;DHT22;26989;45.524;10.938;2022-07-22T14:58:54;38.60;57.10
41256;DHT22;26989;45.524;10.938;2022-07-22T15:01:21;38.70;57.10
41256;DHT22;26989;45.524;10.938;2022-07-22T15:03:53;38.90;57.10
41256;DHT22;26989;45.524;10.938;2022-07-22T15:06:20;38.70;57.10
41256;DHT22;26989;45.524;10.938;2022-07-22T15:08:48;38.60;57.20
41256;DHT22;26989;45.524;10.938;2022-07-22T15:11:15;38.60;57.00
41256;DHT22;26989;45.524;10.938;2022-07-22T15:13:42;38.60;57.30
41256;DHT22;26989;45.524;10.938;2022-07-22T15:16:09;38.70;56.80
41256;DHT22;26989;45.524;10.938;2022-07-22T15:18:37;38.60;57.50
41256;DHT22;26989;45.524;10.938;2022-07-22T15:21:07;38.70;57.50
41256;DHT22;26989;45.524;10.938;2022-07-22T15:23:37;38.80;57.50
41256;DHT22;26989;45.524;10.938;2022-07-22T15:26:10;38.60;57.40
41256;DHT22;26989;45.524;10.938;2022-07-22T15:28:37;38.60;57.80
41256;DHT22;26989;45.524;10.938;2022-07-22T15:31:05;38.70;57.40
41256;DHT22;26989;45.524;10.938;2022-07-22T15:33:32;38.90;57.20
41256;DHT22;26989;45.524;10.938;2022-07-22T15:36:06;38.90;57.40
41256;DHT22;26989;45.524;10.938;2022-07-22T15:38:34;38.90;57.00
41256;DHT22;26989;45.524;10.938;2022-07-22T15:41:02;38.90;57.30
41256;DHT22;26989;45.524;10.938;2022-07-22T15:43:30;38.90;57.30
41256;DHT22;26989;45.524;10.938;2022-07-22T15:45:57;38.60;57.60
41256;DHT22;26989;45.524;10.938;2022-07-22T15:48:24;38.80;57.20
41256;DHT22;26989;45.524;10.938;2022-07-22T15:50:51;38.70;57.30